Time;durP1;ratioP1;P1;durP2;ratioP2;P2;SDS_P1;SDS_P2;PMS_P1;PMS_P2;Temp;Humidity;BMP_temperature;BMP_pressure;BME280_temperature;BME280_humidity;BME280_pressure;Samples;Min_cycle;Max_cycle;Signal;HPM_P1;HPM_P2
2022/08/11 00:02:25;;;;;;;8.05;3.15;;;;;;;20.53;75.29;102283.97;4993154;28;20041;-74
2022/08/11 00:04:50;;;;;;;12.23;3.22;;;;;;;20.40;75.38;102286.66;4994442;28;20022;-73
2022/08/11 00:07:16;;;;;;;9.15;3.13;;;;;;;20.26;75.94;102270.25;4994413;28;20038;-74
2022/08/11 00:09:42;;;;;;;8.80;3.10;;;;;;;20.44;75.55;102288.66;4994387;28;20016;-73
2022/08/11 00:12:15;;;;;;;3.88;2.92;;;;;;;20.45;75.45;102289.47;4994247;28;20026;-74
2022/08/11 00:14:42;;;;;;;7.78;3.63;;;;;;;20.21;76.33;102291.88;4994382;28;20101;-74
2022/08/11 00:17:10;;;;;;;5.65;3.08;;;;;;;20.36;76.16;102285.50;4992983;28;20038;-73
2022/08/11 00:20:06;;;;;;;8.57;3.00;;;;;;;20.28;76.24;102287.41;4994123;28;20034;-74
2022/08/11 00:22:33;;;;;;;6.88;3.22;;;;;;;20.23;75.94;102295.09;4993908;28;20042;-74
2022/08/11 00:25:00;;;;;;;7.82;3.10;;;;;;;20.34;75.60;102292.78;4992878;28;20053;-74
2022/08/11 00:27:33;;;;;;;7.75;3.22;;;;;;;20.31;75.67;102290.59;4994054;28;20022;-74
2022/08/11 00:29:59;;;;;;;8.35;3.10;;;;;;;20.28;75.23;102290.03;4994067;28;20018;-74
2022/08/11 00:32:26;;;;;;;5.65;3.33;;;;;;;20.10;76.63;102297.03;4992724;28;20118;-74
2022/08/11 00:34:53;;;;;;;6.70;3.40;;;;;;;19.73;77.15;102276.69;4992656;28;20478;-74
2022/08/11 00:37:21;;;;;;;4.18;2.90;;;;;;;19.97;77.65;102293.50;4993926;28;20045;-74
2022/08/11 00:39:52;;;;;;;10.13;3.60;;;;;;;20.10;76.99;102297.03;4992530;28;20085;-74
2022/08/11 00:42:55;;;;;;;4.97;3.25;;;;;;;20.06;76.63;102296.66;4993841;28;20026;-74
2022/08/11 00:45:31;;;;;;;5.05;3.30;;;;;;;20.13;76.54;102292.16;4993879;28;20036;-74
2022/08/11 00:48:07;;;;;;;7.45;3.30;;;;;;;20.12;76.30;102297.63;4993985;28;20110;-74
2022/08/11 00:51:00;;;;;;;5.90;3.50;;;;;;;19.86;77.37;102291.56;4992377;28;20073;-74
2022/08/11 00:53:32;;;;;;;;;;;;;;;20.00;77.16;102295.69;4994103;28;20023;-74
2022/08/11 00:56:03;;;;;;;8.00;3.15;;;;;;;19.89;77.05;102299.00;4993828;28;19952;-74
2022/08/11 00:58:50;;;;;;;5.60;3.30;;;;;;;19.99;77.31;102295.88;4997159;28;20041;-77
2022/08/11 01:01:15;;;;;;;7.60;3.65;;;;;;;19.86;76.98;102278.44;4998978;28;20053;-78
2022/08/11 01:04:18;;;;;;;7.05;3.47;;;;;;;20.02;77.16;102296.28;4992981;28;20471;-72
2022/08/11 01:06:51;;;;;;;11.15;3.42;;;;;;;19.99;77.14;102303.75;4993620;28;20538;-73
2022/08/11 01:09:50;;;;;;;4.53;3.00;;;;;;;19.99;76.86;102303.75;4993711;28;20521;-73
2022/08/11 01:12:35;;;;;;;7.68;3.70;;;;;;;19.84;77.10;102299.63;4992308;28;20034;-73
2022/08/11 01:15:19;;;;;;;7.13;3.42;;;;;;;19.84;77.39;102298.81;4993623;28;20018;-73
2022/08/11 01:18:02;;;;;;;12.52;3.78;;;;;;;19.83;77.28;102287.53;4992303;28;20034;-73
2022/08/11 01:21:14;;;;;;;5.72;3.33;;;;;;;19.74;77.07;102285.38;4993547;28;20386;-73
2022/08/11 01:23:48;;;;;;;6.45;3.72;;;;;;;19.61;78.00;102292.25;4993350;28;20054;-73
2022/08/11 01:26:37;;;;;;;5.95;3.80;;;;;;;19.67;78.14;102289.84;4992384;28;20117;-73
2022/08/11 01:29:36;;;;;;;4.97;3.50;;;;;;;19.57;78.42;102285.84;4992069;28;20423;-74
2022/08/11 01:32:07;;;;;;;6.13;3.45;;;;;;;19.68;78.04;102294.06;4994470;28;20042;-74
2022/08/11 01:34:51;;;;;;;9.10;3.53;;;;;;;19.58;77.33;102284.03;4993529;28;20038;-73
2022/08/11 01:37:50;;;;;;;5.18;3.60;;;;;;;19.71;77.19;102285.78;4992198;28;20486;-74
2022/08/11 01:40:46;;;;;;;5.15;3.67;;;;;;;19.58;77.89;102289.25;4993383;28;20482;-74
2022/08/11 01:46:39;;;;;;;6.10;3.50;;;;;;;19.60;77.16;102282.78;4993671;28;20034;-74
2022/08/11 01:49:29;;;;;;;9.98;3.50;;;;;;;19.58;77.42;102284.03;4993196;28;20019;-74
2022/08/11 01:52:06;;;;;;;11.27;3.47;;;;;;;19.57;76.69;102282.41;4993326;28;20475;-73
2022/08/11 01:54:43;;;;;;;6.60;3.50;;;;;;;19.50;77.32;102279.81;4992125;28;20064;-74
2022/08/11 01:57:40;;;;;;;5.53;3.58;;;;;;;19.45;77.27;102284.06;4993682;28;20080;-74
2022/08/11 02:00:11;;;;;;;9.18;3.65;;;;;;;19.53;77.25;102283.84;4992207;28;20049;-74
2022/08/11 02:03:02;;;;;;;7.15;3.80;;;;;;;19.32;78.25;102283.13;4995214;28;20462;-74
2022/08/11 02:05:59;;;;;;;5.38;3.50;;;;;;;19.37;77.74;102277.28;4996944;28;20436;-74
2022/08/11 02:09:06;;;;;;;7.90;3.72;;;;;;;19.48;77.26;102281.03;4997106;28;20046;-73
2022/08/11 02:11:35;;;;;;;8.70;3.70;;;;;;;19.26;77.95;102273.50;4994830;28;20560;-73
2022/08/11 02:14:14;;;;;;;6.13;3.60;;;;;;;19.28;78.26;102279.34;4996641;28;20540;-73
2022/08/11 02:16:52;;;;;;;8.35;3.53;;;;;;;19.34;78.04;102269.84;4995135;28;20025;-74
2022/08/11 02:25:56;;;;;;;12.10;4.07;;;;;;;19.35;77.96;102274.84;4979102;28;20089;-73
2022/08/11 02:28:30;;;;;;;9.57;4.07;;;;;;;19.31;78.17;102268.44;4992633;28;20046;-73
2022/08/11 02:34:11;;;;;;;11.15;4.18;;;;;;;19.03;79.70;102268.75;4996079;28;20525;-73
2022/08/11 02:37:13;;;;;;;9.32;4.47;;;;;;;19.21;78.89;102277.75;4994768;28;20038;-73
2022/08/11 02:39:58;;;;;;;5.80;3.90;;;;;;;19.09;79.28;102269.72;4992929;28;20041;-73
2022/08/11 02:42:40;;;;;;;7.45;4.40;;;;;;;18.94;80.23;102262.13;4995880;28;20034;-73
2022/08/11 02:45:33;;;;;;;7.03;4.10;;;;;;;19.03;79.97;102270.56;4995850;28;20034;-73
2022/08/11 02:51:36;;;;;;;6.75;4.32;;;;;;;18.91;80.58;102268.56;4996095;28;20037;-73
2022/08/11 02:54:37;;;;;;;7.20;4.30;;;;;;;18.76;80.92;102267.19;4995789;28;20062;-73
2022/08/11 02:57:26;;;;;;;6.95;4.72;;;;;;;18.65;81.77;102274.66;4994374;28;20026;-73
2022/08/11 03:00:12;;;;;;;11.50;4.57;;;;;;;18.87;80.84;102258.72;4995488;28;20033;-73
2022/08/11 03:02:48;;;;;;;5.90;4.20;;;;;;;18.73;81.49;102263.16;4994305;28;20431;-73
2022/08/11 03:05:25;;;;;;;6.95;4.28;;;;;;;18.78;81.08;102267.81;4995598;28;20097;-73
2022/08/11 03:08:12;;;;;;;7.35;4.65;;;;;;;18.61;81.47;102246.47;4994267;28;20029;-74
2022/08/11 03:17:23;;;;;;;9.05;4.68;;;;;;;18.62;81.88;102251.50;4981487;28;20128;-74
2022/08/11 03:20:14;;;;;;;7.60;4.72;;;;;;;18.56;82.07;102254.13;4995180;28;20045;-74
2022/08/11 03:23:00;;;;;;;9.70;5.03;;;;;;;18.42;82.83;102248.13;4995054;28;20050;-73
2022/08/11 03:25:56;;;;;;;9.13;4.85;;;;;;;18.51;82.32;102256.56;4995198;28;20042;-74
2022/08/11 03:28:52;;;;;;;9.07;4.60;;;;;;;18.57;82.10;102251.31;4993841;28;20482;-73
2022/08/11 03:31:27;;;;;;;6.97;5.10;;;;;;;18.40;83.38;102264.00;4995096;28;20145;-73
2022/08/11 03:34:29;;;;;;;9.10;5.07;;;;;;;18.55;82.64;102248.06;4993757;28;20057;-73
2022/08/11 03:37:50;;;;;;;7.65;4.80;;;;;;;18.42;83.13;102255.97;4954219;29;20031;-74
2022/08/11 03:43:48;;;;;;;11.27;4.82;;;;;;;18.28;83.74;102252.56;4995222;28;20465;-74
2022/08/11 03:46:28;;;;;;;10.27;4.93;;;;;;;18.36;83.57;102243.69;4994741;28;20041;-73
2022/08/11 03:49:08;;;;;;;7.78;4.95;;;;;;;18.28;84.22;102252.56;4993383;28;20471;-73
2022/08/11 03:51:55;;;;;;;9.50;4.88;;;;;;;18.17;84.40;102246.09;4994758;28;20022;-74
2022/08/11 03:54:43;;;;;;;11.00;4.80;;;;;;;18.26;84.47;102250.13;4994762;28;20033;-74
2022/08/11 03:57:49;;;;;;;12.57;5.15;;;;;;;18.35;83.75;102249.91;4994088;28;20537;-73
2022/08/11 04:00:51;;;;;;;7.90;4.97;;;;;;;18.27;83.78;102250.94;4974284;28;20053;-74
2022/08/11 04:03:22;;;;;;;6.82;4.93;;;;;;;18.26;83.70;102249.31;4994419;28;20026;-74
2022/08/11 04:06:30;;;;;;;9.30;4.85;;;;;;;18.23;84.06;102252.34;4994439;28;20478;-74
2022/08/11 04:09:04;;;;;;;12.18;4.72;;;;;;;18.21;83.98;102251.72;4983818;28;20138;-74
2022/08/11 04:11:50;;;;;;;9.15;5.07;;;;;;;18.19;83.82;102245.91;4994675;28;20022;-74
2022/08/11 04:17:33;;;;;;;8.18;5.03;;;;;;;18.32;83.16;102247.72;4994245;28;20410;-74
2022/08/11 04:20:37;;;;;;;8.18;5.00;;;;;;;18.26;83.80;102250.13;4994234;28;20042;-74
2022/08/11 04:23:25;;;;;;;8.25;5.00;;;;;;;18.15;83.94;102242.88;4986711;28;20510;-74
2022/08/11 04:26:30;;;;;;;7.65;4.78;;;;;;;18.30;83.25;102241.88;4992415;28;20034;-74
2022/08/11 04:29:13;;;;;;;7.38;4.72;;;;;;;18.21;84.18;102239.47;4994079;28;20054;-74
2022/08/11 04:31:47;;;;;;;10.68;5.00;;;;;;;18.10;83.85;102242.69;4994164;28;20531;-74
2022/08/11 04:34:22;;;;;;;7.82;5.20;;;;;;;18.14;83.54;102240.47;4994199;28;20379;-74
2022/08/11 04:40:16;;;;;;;7.50;5.07;;;;;;;18.01;83.74;102230.81;4994118;28;20041;-74
2022/08/11 04:43:21;;;;;;;10.02;4.60;;;;;;;18.21;83.06;102239.47;4992737;28;20030;-74
2022/08/11 04:46:26;;;;;;;10.20;4.65;;;;;;;18.08;83.40;102239.47;4993958;28;20033;-74
2022/08/11 05:01:39;;;;;;;7.80;5.18;;;;;;;18.16;82.75;102233.25;4997361;28;20156;-75
2022/08/11 05:01:42;;;;;;;10.73;4.95;;;;;;;18.28;82.43;102244.69;4994060;28;20509;-74
2022/08/11 05:07:48;;;;;;;10.43;5.32;;;;;;;18.19;82.28;102232.84;4995890;28;20057;-73
2022/08/11 05:10:38;;;;;;;6.32;4.55;;;;;;;18.19;81.58;102209.28;4994116;28;20026;-74
2022/08/11 05:35:48;;;;;;;9.85;4.60;;;;;;;18.56;79.77;102220.91;4994517;28;20093;-80
2022/08/11 05:57:58;;;;;;;8.55;4.20;;;;;;;19.29;75.35;102265.22;4996847;28;20073;-72
2022/08/11 06:00:24;;;;;;;12.65;4.30;;;;;;;19.52;74.12;102256.03;4994949;28;20496;-73
2022/08/11 06:02:55;;;;;;;6.50;4.10;;;;;;;19.60;74.91;102251.34;4995627;28;20041;-73
2022/08/11 06:05:20;;;;;;;6.63;4.03;;;;;;;26.15;54.65;102245.94;4995724;28;20109;-73
2022/08/11 06:07:47;;;;;;;5.15;3.72;;;;;;;30.68;41.21;102251.06;4994637;28;20057;-73
2022/08/11 06:10:23;;;;;;;5.82;3.65;;;;;;;31.86;37.69;102253.47;4997534;28;20034;-72
2022/08/11 06:12:52;;;;;;;7.13;3.50;;;;;;;32.76;35.34;102263.75;4997604;28;20116;-74
2022/08/11 06:15:17;;;;;;;8.93;3.58;;;;;;;32.82;34.51;102259.84;4995824;28;20022;-73
2022/08/11 06:17:45;;;;;;;6.43;3.10;;;;;;;32.90;34.70;102258.34;4995869;28;20026;-73
2022/08/11 06:20:13;;;;;;;5.55;3.20;;;;;;;32.88;34.54;102255.16;4998063;28;20026;-74
2022/08/11 06:22:43;;;;;;;7.43;3.10;;;;;;;33.88;32.57;102255.63;4997705;28;20046;-73
2022/08/11 06:25:10;;;;;;;7.10;2.78;;;;;;;34.40;31.68;102260.38;4995770;28;20069;-73
2022/08/11 06:27:37;;;;;;;5.25;3.10;;;;;;;33.85;31.86;102250.13;4995825;28;20114;-73
2022/08/11 06:30:12;;;;;;;4.82;2.80;;;;;;;34.64;30.75;102261.84;4996586;28;20064;-75
2022/08/11 06:32:40;;;;;;;4.32;2.80;;;;;;;33.37;32.55;102253.47;4998634;28;20014;-77
2022/08/11 06:35:24;;;;;;;3.63;2.60;;;;;;;34.66;30.83;102249.69;5006946;28;20034;-77
2022/08/11 06:38:15;;;;;;;11.93;2.90;;;;;;;33.15;31.92;102255.09;5007304;28;20030;-73
2022/08/11 06:40:40;;;;;;;4.40;2.63;;;;;;;34.99;29.51;102244.63;5007036;28;20026;-78
2022/08/11 06:43:22;;;;;;;9.87;4.53;;;;;;;34.40;30.46;102240.81;5008469;28;20045;-80
2022/08/11 06:45:54;;;;;;;7.22;2.90;;;;;;;34.69;30.26;102242.91;5005934;28;20056;-77
2022/08/11 06:48:22;;;;;;;6.93;3.00;;;;;;;35.53;28.26;102246.06;5005827;28;20046;-80
2022/08/11 06:51:11;;;;;;;6.40;2.72;;;;;;;35.39;28.34;102244.41;5005131;28;20450;-79
2022/08/11 06:53:49;;;;;;;7.88;3.40;;;;;;;35.93;27.95;102246.53;5006021;28;20033;-76
2022/08/11 07:02:11;;;;;;;4.22;2.70;;;;;;;36.53;26.22;102242.72;4998403;28;20069;-75
2022/08/11 07:04:42;;;;;;;5.50;2.83;;;;;;;35.68;28.35;102249.06;4997077;28;20026;-73
2022/08/11 07:15:58;;;;;;;6.90;3.00;;;;;;;36.13;27.79;102234.28;4996052;28;19923;-73
2022/08/11 07:30:09;;;;;;;7.35;3.00;;;;;;;34.90;29.36;102238.47;4995490;28;20033;-74
2022/08/11 07:32:49;;;;;;;5.43;2.70;;;;;;;36.43;27.76;102245.00;4994062;28;20080;-72
2022/08/11 07:35:19;;;;;;;6.78;2.90;;;;;;;36.62;26.71;102247.25;4993047;28;20022;-72
2022/08/11 07:37:49;;;;;;;7.65;3.20;;;;;;;36.17;27.49;102232.53;4994400;28;20056;-73
2022/08/11 07:40:21;;;;;;;7.22;3.13;;;;;;;34.91;28.80;102242.72;4992784;28;20548;-73
2022/08/11 07:42:47;;;;;;;;;;;;;;;35.46;28.10;102241.19;4993482;28;20018;-73
2022/08/11 07:53:29;;;;;;;7.47;2.72;;;;;;;33.27;31.21;102243.03;4994854;28;20069;-72
2022/08/11 07:55:56;;;;;;;9.07;3.10;;;;;;;32.38;33.15;102241.81;4992195;28;20030;-72
2022/08/11 08:17:52;;;;;;;5.30;2.78;;;;;;;29.31;38.19;102238.84;4994572;28;20056;-72
2022/08/11 08:20:20;;;;;;;4.30;2.80;;;;;;;29.79;37.72;102238.22;4994128;28;20034;-72
2022/08/11 08:22:49;;;;;;;10.65;3.05;;;;;;;29.17;38.99;102238.69;4994032;28;20054;-72
2022/08/11 08:25:16;;;;;;;7.50;2.70;;;;;;;29.84;38.95;102240.84;4992718;28;20026;-73
2022/08/11 08:27:44;;;;;;;6.57;2.78;;;;;;;29.44;38.45;102238.22;4994177;28;20029;-72
2022/08/11 08:32:59;;;;;;;11.38;3.28;;;;;;;30.88;35.48;102244.69;4993923;28;20065;-73
2022/08/11 08:35:25;;;;;;;7.30;3.00;;;;;;;30.15;37.17;102235.94;4993545;28;20026;-73
2022/08/11 08:37:51;;;;;;;7.00;2.50;;;;;;;30.09;38.16;102242.41;4993501;28;20481;-73
2022/08/11 08:40:17;;;;;;;6.20;2.60;;;;;;;30.96;35.68;102241.38;4993829;28;20542;-73
2022/08/11 08:42:54;;;;;;;3.95;2.35;;;;;;;30.75;34.81;102232.81;4992744;28;20049;-73
2022/08/11 08:45:20;;;;;;;8.73;2.85;;;;;;;30.88;35.53;102234.00;4992745;28;20452;-74
2022/08/11 08:48:01;;;;;;;6.82;2.60;;;;;;;31.26;34.99;102237.41;4993727;28;20030;-73
2022/08/11 08:53:28;;;;;;;9.50;2.50;;;;;;;30.73;35.76;102227.00;4994291;28;20185;-74
2022/08/11 08:55:56;;;;;;;7.03;2.80;;;;;;;31.22;34.51;102229.19;4994098;28;20026;-73
2022/08/11 08:58:23;;;;;;;5.68;2.80;;;;;;;31.45;34.72;102224.84;4993970;28;20057;-73
2022/08/11 09:00:50;;;;;;;9.45;2.50;;;;;;;31.18;34.71;102224.72;4993627;28;20030;-73
2022/08/11 09:03:18;;;;;;;7.07;2.45;;;;;;;30.49;34.49;102227.81;4993663;28;20030;-73
2022/08/11 09:05:43;;;;;;;5.50;2.40;;;;;;;31.05;34.05;102223.59;4993738;28;20389;-72
2022/08/11 09:08:10;;;;;;;7.10;2.50;;;;;;;31.27;33.68;102230.97;4992314;28;20030;-72
2022/08/11 09:10:37;;;;;;;8.02;2.60;;;;;;;31.67;32.31;102221.47;4993573;28;20479;-72
2022/08/11 09:13:05;;;;;;;6.93;2.50;;;;;;;31.76;32.80;102224.25;4997615;28;20493;-72
2022/08/11 09:15:32;;;;;;;4.00;2.50;;;;;;;31.63;33.57;102222.38;4997540;28;20092;-72
2022/08/11 09:18:04;;;;;;;9.57;2.50;;;;;;;32.01;32.52;102223.00;4997520;28;20026;-72
2022/08/11 09:20:33;;;;;;;6.38;2.78;;;;;;;31.38;33.57;102223.63;4997360;28;20026;-72
2022/08/11 09:28:35;;;;;;;6.30;2.30;;;;;;;30.76;34.20;102211.19;4996585;28;20142;-74
2022/08/11 09:31:01;;;;;;;8.30;3.05;;;;;;;31.46;33.12;102223.72;4997340;28;20081;-73
2022/08/11 09:33:28;;;;;;;9.63;2.60;;;;;;;32.03;31.77;102215.50;4996009;28;20030;-73
2022/08/11 09:35:54;;;;;;;9.93;2.65;;;;;;;31.55;32.96;102209.69;4995922;28;20505;-72
2022/08/11 09:41:08;;;;;;;9.13;2.60;;;;;;;32.11;31.08;102206.78;4997159;28;20540;-73
2022/08/11 09:46:29;;;;;;;6.13;2.28;;;;;;;32.83;30.71;102201.75;4996687;28;20049;-73
2022/08/11 09:48:58;;;;;;;6.18;2.30;;;;;;;32.82;30.58;102200.97;4996687;28;20015;-73
2022/08/11 09:51:24;;;;;;;5.05;2.20;;;;;;;32.78;30.83;102197.31;4995436;28;20030;-72
2022/08/11 09:53:50;;;;;;;7.15;2.38;;;;;;;32.83;30.53;102197.22;4996661;28;20023;-73
2022/08/11 09:59:05;;;;;;;9.45;2.15;;;;;;;32.84;30.51;102198.78;4996719;28;20037;-73
2022/08/11 10:01:47;;;;;;;5.85;2.33;;;;;;;33.41;30.20;102195.53;4996713;28;20034;-72
2022/08/11 10:04:16;;;;;;;8.68;2.30;;;;;;;33.73;28.53;102188.25;4996705;28;20026;-71
2022/08/11 10:07:04;;;;;;;6.20;2.10;;;;;;;33.21;29.51;102202.97;4995282;28;20023;-73
2022/08/11 10:09:32;;;;;;;3.72;2.30;;;;;;;33.77;29.49;102197.25;4995313;28;20077;-72
2022/08/11 10:12:01;;;;;;;4.93;2.40;;;;;;;33.85;27.16;102193.81;4996507;28;20504;-72
2022/08/11 10:17:15;;;;;;;6.22;2.40;;;;;;;33.84;29.41;102195.72;4996395;28;20085;-72
2022/08/11 10:19:44;;;;;;;8.75;2.20;;;;;;;32.94;27.90;102189.69;4996201;28;20470;-72
2022/08/11 10:27:41;;;;;;;10.32;2.45;;;;;;;33.29;26.67;102176.53;4996439;28;20041;-72
2022/08/11 10:35:36;;;;;;;7.32;2.10;;;;;;;34.06;26.63;102177.94;4995958;28;20037;-72
2022/08/11 10:38:03;;;;;;;7.50;2.20;;;;;;;33.48;26.61;102177.88;4996075;28;20126;-72
2022/08/11 10:40:29;;;;;;;6.53;2.20;;;;;;;31.92;28.66;102180.16;4994593;28;20022;-72
2022/08/11 10:43:06;;;;;;;5.07;2.30;;;;;;;33.54;27.65;102173.22;4996002;28;20026;-72
2022/08/11 10:48:28;;;;;;;3.58;1.95;;;;;;;33.77;26.50;102165.09;4995902;28;20493;-72
2022/08/11 10:51:13;;;;;;;6.15;2.30;;;;;;;33.46;26.09;102160.53;4996363;28;20026;-74
2022/08/11 10:59:23;;;;;;;4.90;2.33;;;;;;;34.60;25.06;102159.69;4995615;28;20092;-73
2022/08/11 11:01:51;;;;;;;7.90;2.33;;;;;;;34.72;25.00;102153.66;4994433;28;20022;-73
2022/08/11 11:04:21;;;;;;;5.32;2.20;;;;;;;34.60;25.21;102140.91;4995559;28;20053;-73
2022/08/11 11:07:15;;;;;;;7.15;2.15;;;;;;;34.73;25.29;102139.13;4995446;28;20500;-73
2022/08/11 11:09:46;;;;;;;4.88;1.90;;;;;;;34.53;25.25;102140.56;4995583;28;20075;-73
2022/08/11 11:18:19;;;;;;;8.20;2.10;;;;;;;34.89;25.24;102134.84;4995581;28;20045;-73
2022/08/11 11:20:59;;;;;;;11.20;2.30;;;;;;;33.20;25.49;102134.44;4995233;28;20037;-74
2022/08/11 11:23:31;;;;;;;5.35;2.00;;;;;;;34.41;24.89;102121.63;4993861;28;20372;-72
2022/08/11 11:26:19;;;;;;;8.52;2.50;;;;;;;33.81;24.79;102137.34;4993845;28;20025;-72
2022/08/11 11:28:56;;;;;;;5.72;2.10;;;;;;;34.19;25.02;102136.78;4995087;28;20033;-72
2022/08/11 11:32:00;;;;;;;4.13;2.03;;;;;;;33.17;25.40;102139.63;4993812;28;20041;-72
2022/08/11 11:34:59;;;;;;;5.80;2.25;;;;;;;33.60;24.48;102131.78;4994142;28;20073;-72
2022/08/11 11:37:25;;;;;;;4.20;2.20;;;;;;;34.71;24.24;102125.25;4993749;28;20030;-72
2022/08/11 11:39:52;;;;;;;2.97;2.00;;;;;;;34.67;23.55;102135.03;4993584;28;20485;-72
2022/08/11 11:42:19;;;;;;;5.78;2.10;;;;;;;34.98;22.59;102124.84;4994801;28;20117;-72
2022/08/11 11:44:46;;;;;;;3.67;1.95;;;;;;;35.14;23.14;102117.09;4993612;28;20030;-72
2022/08/11 11:47:13;;;;;;;5.90;2.20;;;;;;;35.54;22.19;102122.13;4993486;28;20057;-72
2022/08/11 11:49:42;;;;;;;6.45;2.10;;;;;;;35.13;22.44;102120.09;4994606;28;20385;-73
2022/08/11 11:52:13;;;;;;;4.60;2.10;;;;;;;34.61;22.85;102120.22;4994403;28;20470;-72
2022/08/11 11:54:40;;;;;;;8.10;2.10;;;;;;;34.57;22.52;102118.16;4994486;28;20101;-72
2022/08/11 12:02:39;;;;;;;4.72;2.20;;;;;;;35.06;22.36;102098.31;4994585;28;20045;-72
2022/08/11 12:05:06;;;;;;;4.72;2.17;;;;;;;35.51;21.93;102103.19;4994423;28;20164;-72
2022/08/11 12:10:25;;;;;;;7.78;2.60;;;;;;;35.49;21.45;102103.47;5071543;28;20841;-39
2022/08/11 12:15:36;;;;;;;3.78;2.03;;;;;;;35.73;21.97;102092.13;5071014;28;20038;-40
2022/08/11 12:18:02;;;;;;;4.75;1.98;;;;;;;35.07;21.88;102095.31;5071055;28;20468;-41
2022/08/11 12:20:28;;;;;;;7.88;1.92;;;;;;;35.31;22.03;102088.59;5070817;28;20020;-40
2022/08/11 12:28:24;;;;;;;6.90;1.92;;;;;;;35.00;22.01;102081.56;5070776;28;20040;-40
2022/08/11 12:30:53;;;;;;;11.35;2.10;;;;;;;35.11;20.92;102071.28;5069053;28;20388;-40
2022/08/11 12:33:19;;;;;;;5.20;1.88;;;;;;;35.18;21.43;102075.03;5070831;28;20032;-39
2022/08/11 12:35:47;;;;;;;4.18;1.90;;;;;;;34.96;21.91;102062.63;5070527;28;20027;-40
2022/08/11 12:38:15;;;;;;;7.13;2.20;;;;;;;35.15;21.67;102073.00;5070260;28;20089;-40
2022/08/11 12:46:20;;;;;;;4.43;1.73;;;;;;;33.87;22.31;102068.28;5070830;28;20051;-39
2022/08/11 12:51:57;;;;;;;6.10;1.98;;;;;;;34.89;21.92;102056.19;5070715;28;20087;-41
2022/08/11 12:54:53;;;;;;;8.43;2.00;;;;;;;35.33;21.26;102051.41;5070130;28;20103;-39
2022/08/11 13:05:42;;;;;;;7.82;2.28;;;;;;;35.04;21.38;102048.38;5070273;28;20038;-40
2022/08/11 13:08:09;;;;;;;3.22;1.85;;;;;;;34.94;21.32;102031.84;5069800;28;20043;-41
2022/08/11 13:13:20;;;;;;;5.40;1.75;;;;;;;34.76;21.11;102039.19;5070196;28;20174;-39
2022/08/11 13:15:50;;;;;;;6.00;1.70;;;;;;;34.68;20.67;102027.38;5069439;28;20052;-41
2022/08/11 13:18:22;;;;;;;3.22;1.85;;;;;;;34.46;21.17;102025.66;5069761;28;20029;-40
2022/08/11 13:20:50;;;;;;;7.25;1.70;;;;;;;34.32;20.68;102039.25;5061730;28;20435;-39
2022/08/11 13:23:17;;;;;;;5.10;1.90;;;;;;;34.24;21.58;102026.66;5056038;28;20021;-40
2022/08/11 13:25:43;;;;;;;3.33;1.70;;;;;;;34.13;21.57;102030.78;5056262;28;20208;-41
2022/08/11 13:28:09;;;;;;;5.22;1.80;;;;;;;33.56;21.64;102034.34;5056188;28;20086;-39
2022/08/11 13:33:19;;;;;;;4.95;1.80;;;;;;;33.57;21.59;102021.75;5056731;28;20435;-40
2022/08/11 13:35:49;;;;;;;6.45;1.77;;;;;;;34.27;21.05;102020.66;5055857;28;20112;-39
2022/08/11 13:38:16;;;;;;;3.38;1.70;;;;;;;33.86;21.57;102015.75;5056097;28;20032;-40
2022/08/11 13:40:42;;;;;;;4.28;1.70;;;;;;;34.05;21.51;102018.94;5055741;28;20032;-41
2022/08/11 13:43:08;;;;;;;2.10;1.60;;;;;;;34.43;21.05;102006.72;5056040;28;20027;-38
2022/08/11 13:45:36;;;;;;;5.38;1.65;;;;;;;34.19;21.50;102018.78;5056173;28;20033;-40
2022/08/11 13:48:05;;;;;;;5.78;1.60;;;;;;;33.90;21.29;102019.41;5055568;28;20029;-41
2022/08/11 13:53:20;;;;;;;3.42;1.90;;;;;;;34.00;21.58;101999.50;5056064;28;20441;-40
2022/08/11 13:55:47;;;;;;;5.63;1.70;;;;;;;34.01;21.94;102014.50;5055461;28;20111;-41
2022/08/11 13:58:13;;;;;;;4.38;1.85;;;;;;;34.38;21.62;102007.66;5055400;28;20111;-40
2022/08/11 14:00:43;;;;;;;3.22;1.92;;;;;;;35.13;21.34;102007.28;5055403;28;20025;-40
2022/08/11 14:03:11;;;;;;;4.32;1.80;;;;;;;34.71;20.80;102010.63;5055535;28;20029;-41
2022/08/11 14:05:45;;;;;;;2.67;1.70;;;;;;;34.58;21.12;102007.03;5055608;28;20031;-40
2022/08/11 14:08:14;;;;;;;6.63;1.90;;;;;;;34.66;21.14;102001.94;5054931;28;20136;-40
2022/08/11 14:10:41;;;;;;;6.28;2.00;;;;;;;34.84;21.30;101995.38;5055510;28;20506;-41
2022/08/11 14:16:03;;;;;;;7.82;1.77;;;;;;;34.25;21.78;101989.88;5055429;28;20082;-41
2022/08/11 14:18:31;;;;;;;4.90;2.13;;;;;;;34.36;21.45;101993.81;5055192;28;20049;-40
2022/08/11 14:23:58;;;;;;;3.13;1.55;;;;;;;34.30;21.41;101976.31;5055282;28;20557;-42
2022/08/11 14:26:27;;;;;;;11.63;1.90;;;;;;;33.95;21.33;101989.72;5053667;28;20036;-40
2022/08/11 14:29:07;;;;;;;5.03;1.95;;;;;;;34.30;21.41;101979.00;5055016;28;20017;-42
2022/08/11 14:31:34;;;;;;;4.80;1.77;;;;;;;33.35;22.79;101982.47;5054262;28;20033;-41
2022/08/11 14:34:06;;;;;;;3.58;1.80;;;;;;;33.86;21.96;101976.34;5054631;28;20028;-41
2022/08/11 14:36:36;;;;;;;2.70;1.90;;;;;;;33.84;22.03;101970.53;5055032;28;20073;-40
2022/08/11 14:39:07;;;;;;;8.27;2.10;;;;;;;33.64;22.19;101976.53;5054839;28;20071;-46
2022/08/11 14:47:04;;;;;;;3.13;1.70;;;;;;;33.40;22.78;101967.00;5054727;28;20483;-40
2022/08/11 14:49:33;;;;;;;5.95;2.13;;;;;;;32.64;23.08;101967.25;5054411;28;20461;-41
2022/08/11 14:52:00;;;;;;;7.40;1.73;;;;;;;33.38;22.90;101965.75;5054591;28;20033;-41
2022/08/11 14:57:13;;;;;;;4.55;1.75;;;;;;;33.62;21.82;101955.38;5055131;28;20052;-41
2022/08/11 14:59:39;;;;;;;4.55;1.50;;;;;;;33.35;22.18;101971.75;5054265;28;20464;-39
2022/08/11 15:04:50;;;;;;;5.50;1.58;;;;;;;33.65;22.07;101960.09;5054424;28;20502;-54
2022/08/11 15:07:16;;;;;;;4.40;1.90;;;;;;;32.99;22.13;101952.13;5054040;28;20029;-41
2022/08/11 15:09:43;;;;;;;4.45;2.00;;;;;;;33.47;22.41;101953.16;5053932;28;20537;-40
2022/08/11 15:12:17;;;;;;;5.88;1.92;;;;;;;33.35;22.56;101945.75;5052768;28;20035;-40
2022/08/11 15:17:34;;;;;;;2.55;1.58;;;;;;;33.57;22.33;101944.81;5054698;28;20044;-41
2022/08/11 15:25:34;;;;;;;3.75;2.13;;;;;;;33.26;22.72;101942.25;5054181;28;20043;-40
2022/08/11 15:39:14;;;;;;;20.92;2.80;;;;;;;31.96;24.46;101938.97;5054347;28;20074;-38
2022/08/11 15:47:32;;;;;;;4.90;2.10;;;;;;;32.00;26.07;101921.25;5053416;28;20081;-40
2022/08/11 15:50:01;;;;;;;5.88;2.33;;;;;;;32.42;26.91;101922.56;5053270;28;20025;-39
2022/08/11 15:52:31;;;;;;;8.88;2.58;;;;;;;32.26;25.36;101914.16;5053438;28;20391;-40
2022/08/11 15:55:01;;;;;;;7.97;2.30;;;;;;;32.32;26.30;101914.81;5053609;28;20021;-41
2022/08/11 16:05:44;;;;;;;7.55;2.40;;;;;;;31.97;25.52;101905.81;5053330;28;20086;-39
2022/08/11 16:08:13;;;;;;;11.82;2.33;;;;;;;32.13;25.51;101904.34;5052941;28;20033;-39
2022/08/11 16:10:39;;;;;;;9.35;2.50;;;;;;;31.95;25.63;101905.34;5053419;28;20482;-40
2022/08/11 16:16:23;;;;;;;8.80;2.20;;;;;;;31.81;25.53;101911.50;5053470;28;20033;-41
2022/08/11 16:18:39;;;;;;;10.63;2.33;;;;;;;31.94;25.35;101914.44;5052507;28;20545;-38
2022/08/11 16:21:07;;;;;;;10.68;2.63;;;;;;;31.67;25.72;101900.06;5053377;28;20486;-42
2022/08/11 16:23:34;;;;;;;5.53;2.67;;;;;;;31.85;25.96;101899.13;5053379;28;20423;-40
2022/08/11 16:26:00;;;;;;;9.77;2.45;;;;;;;31.78;29.25;101898.75;5053785;28;20052;-39
2022/08/11 16:28:29;;;;;;;3.47;1.70;;;;;;;31.72;29.62;101899.97;5053263;28;20361;-38
2022/08/11 16:30:56;;;;;;;3.30;1.60;;;;;;;31.68;30.07;101894.44;5053425;28;20067;-40
2022/08/11 16:33:23;;;;;;;2.90;1.70;;;;;;;31.67;30.09;101894.72;5053188;28;20074;-40
2022/08/11 16:38:38;;;;;;;5.63;2.00;;;;;;;31.24;31.09;101901.25;5053268;28;20415;-39
2022/08/11 16:41:11;;;;;;;6.93;1.90;;;;;;;31.21;31.06;101895.72;5053164;28;20457;-38
2022/08/11 16:49:23;;;;;;;6.38;1.90;;;;;;;31.20;28.70;101899.50;5053493;28;20271;-40
2022/08/11 16:51:49;;;;;;;3.65;1.80;;;;;;;31.22;31.00;101892.78;5052763;28;20090;-40
2022/08/11 16:54:14;;;;;;;5.60;1.75;;;;;;;30.98;32.26;101893.00;5052763;28;20025;-40